createdAt,value
2022-11-30T00:00:22.653Z,10.70
2022-11-30T00:01:22.626Z,10.70
2022-11-30T00:02:22.699Z,10.40
2022-11-30T00:03:22.690Z,7.60
2022-11-30T00:04:22.570Z,8.30
2022-11-30T00:05:22.585Z,10.40
2022-11-30T00:06:22.544Z,13.20
2022-11-30T00:07:22.586Z,12.40
2022-11-30T00:08:22.528Z,14.50
2022-11-30T00:09:22.546Z,11.40
2022-11-30T00:10:22.510Z,10.80
2022-11-30T00:11:22.495Z,14.90
2022-11-30T00:12:22.475Z,8.30
2022-11-30T00:13:22.472Z,10.10
2022-11-30T00:14:22.435Z,11.60
2022-11-30T00:15:22.438Z,9.10
2022-11-30T00:16:22.525Z,8.80
2022-11-30T00:17:22.405Z,10.40
2022-11-30T00:18:22.396Z,13.90
2022-11-30T00:19:22.369Z,10.80
2022-11-30T00:20:22.388Z,11.90
2022-11-30T00:21:22.360Z,9.60
2022-11-30T00:22:22.345Z,8.50
2022-11-30T00:23:22.331Z,9.30
2022-11-30T00:24:22.306Z,10.80
2022-11-30T00:25:22.325Z,12.20
2022-11-30T00:26:22.271Z,7.70
2022-11-30T00:27:22.267Z,9.40
2022-11-30T00:28:22.268Z,10.90
2022-11-30T00:29:22.258Z,12.20
2022-11-30T00:30:22.236Z,10.60
2022-11-30T00:31:22.271Z,9.10
2022-11-30T00:32:22.227Z,12.40
2022-11-30T00:33:22.199Z,11.00
2022-11-30T00:34:22.195Z,8.50
2022-11-30T00:35:22.189Z,11.70
2022-11-30T00:36:22.155Z,9.80
2022-11-30T00:37:22.158Z,12.60
2022-11-30T00:38:22.140Z,11.40
2022-11-30T00:39:22.126Z,12.70
2022-11-30T00:40:22.106Z,11.80
2022-11-30T00:41:22.088Z,11.60
2022-11-30T00:42:22.116Z,11.10
2022-11-30T00:43:22.079Z,13.10
2022-11-30T00:44:22.050Z,11.70
2022-11-30T00:45:22.039Z,12.80
2022-11-30T00:46:22.109Z,12.70
2022-11-30T00:47:22.062Z,11.00
2022-11-30T00:48:21.991Z,10.80
2022-11-30T00:49:21.999Z,15.00
2022-11-30T00:50:21.986Z,10.80
2022-11-30T00:51:21.978Z,11.30
2022-11-30T00:52:21.947Z,12.80
2022-11-30T00:53:21.941Z,13.40
2022-11-30T00:54:21.929Z,15.60
2022-11-30T00:55:21.911Z,11.40
2022-11-30T00:56:23.778Z,13.30
2022-11-30T00:57:21.912Z,16.40
2022-11-30T00:58:21.863Z,17.00
2022-11-30T00:59:21.861Z,13.20
2022-11-30T01:00:21.873Z,14.70
2022-11-30T01:01:21.861Z,12.80
2022-11-30T01:02:21.907Z,14.10
2022-11-30T01:03:21.821Z,10.30
2022-11-30T01:04:21.793Z,10.60
2022-11-30T01:05:21.783Z,14.90
2022-11-30T01:06:21.780Z,16.30
2022-11-30T01:07:21.773Z,15.80
2022-11-30T01:08:21.721Z,13.10
2022-11-30T01:09:21.731Z,13.00
2022-11-30T01:10:21.729Z,12.80
2022-11-30T01:11:21.712Z,12.60
2022-11-30T01:12:21.683Z,13.10
2022-11-30T01:13:21.663Z,14.50
2022-11-30T01:14:21.661Z,15.20
2022-11-30T01:15:21.643Z,15.40
2022-11-30T01:16:21.730Z,16.00
2022-11-30T01:17:21.722Z,13.60
2022-11-30T01:18:21.644Z,15.00
2022-11-30T01:19:21.634Z,15.40
2022-11-30T01:20:21.648Z,13.80
2022-11-30T01:21:22.626Z,19.00
2022-11-30T01:22:21.662Z,21.20
2022-11-30T01:23:21.567Z,17.20
2022-11-30T01:24:21.573Z,17.80
2022-11-30T01:25:21.512Z,21.00
2022-11-30T01:26:21.513Z,18.00
2022-11-30T01:27:21.593Z,20.30
2022-11-30T01:28:21.493Z,17.70
2022-11-30T01:29:21.459Z,16.40
2022-11-30T01:30:21.459Z,20.20
2022-11-30T01:31:21.614Z,14.50
2022-11-30T01:32:21.515Z,20.70
2022-11-30T01:33:21.436Z,20.00
2022-11-30T01:34:21.424Z,19.10
2022-11-30T01:35:21.445Z,15.00
2022-11-30T01:36:21.476Z,20.80
2022-11-30T01:37:21.446Z,22.90
2022-11-30T01:38:21.360Z,18.50
2022-11-30T01:39:21.378Z,17.70
2022-11-30T01:40:21.316Z,20.30
2022-11-30T01:41:21.422Z,24.50
2022-11-30T01:42:21.379Z,23.00
2022-11-30T01:43:21.275Z,19.30
2022-11-30T01:44:21.277Z,19.20
2022-11-30T01:45:21.274Z,21.40
2022-11-30T01:46:21.303Z,22.40
2022-11-30T01:47:21.240Z,23.60
2022-11-30T01:48:21.222Z,21.80
2022-11-30T01:49:21.215Z,25.40
2022-11-30T01:50:21.194Z,22.70
2022-11-30T01:51:21.179Z,17.80
2022-11-30T01:52:21.165Z,22.10
2022-11-30T01:53:21.167Z,25.00
2022-11-30T01:54:21.126Z,26.20
2022-11-30T01:55:21.137Z,23.30
2022-11-30T01:56:21.124Z,19.10
2022-11-30T01:57:21.105Z,16.80
2022-11-30T01:58:21.079Z,19.30
2022-11-30T01:59:21.089Z,16.30
2022-11-30T02:00:21.062Z,15.50
2022-11-30T02:01:21.071Z,16.60
2022-11-30T02:02:21.047Z,21.80
2022-11-30T02:03:21.025Z,15.00
2022-11-30T02:04:20.996Z,16.70
2022-11-30T02:05:21.007Z,15.20
2022-11-30T02:06:20.989Z,15.60
2022-11-30T02:07:21.088Z,15.80
2022-11-30T02:08:21.026Z,17.80
2022-11-30T02:09:20.947Z,13.40
2022-11-30T02:10:20.931Z,15.40
2022-11-30T02:11:20.919Z,12.40
2022-11-30T02:12:20.916Z,14.90
2022-11-30T02:13:20.880Z,15.00
2022-11-30T02:14:20.876Z,12.20
2022-11-30T02:15:20.870Z,14.50
2022-11-30T02:16:20.849Z,14.60
2022-11-30T02:17:20.851Z,13.20
2022-11-30T02:18:20.826Z,13.00
2022-11-30T02:19:20.808Z,15.50
2022-11-30T02:20:20.799Z,14.70
2022-11-30T02:21:20.795Z,13.70
2022-11-30T02:22:20.770Z,15.20
2022-11-30T02:23:20.762Z,14.40
2022-11-30T02:24:20.772Z,12.60
2022-11-30T02:25:20.738Z,14.10
2022-11-30T02:26:20.755Z,15.80
2022-11-30T02:27:20.707Z,16.60
2022-11-30T02:28:20.701Z,15.20
2022-11-30T02:29:20.685Z,14.90
2022-11-30T02:30:20.682Z,17.80
2022-11-30T02:31:20.691Z,14.60
2022-11-30T02:32:20.651Z,12.90
2022-11-30T02:33:20.641Z,13.90
2022-11-30T02:34:20.614Z,15.00
2022-11-30T02:35:20.593Z,14.80
2022-11-30T02:36:20.608Z,14.10
2022-11-30T02:37:20.583Z,15.40
2022-11-30T02:38:20.562Z,12.10
2022-11-30T02:39:20.553Z,16.00
2022-11-30T02:40:20.539Z,14.50
2022-11-30T02:41:20.534Z,12.20
2022-11-30T02:42:20.515Z,14.40
2022-11-30T02:43:20.512Z,15.10
2022-11-30T02:44:20.483Z,14.10
2022-11-30T02:45:20.473Z,12.90
2022-11-30T02:46:20.512Z,14.30
2022-11-30T02:47:20.444Z,13.10
2022-11-30T02:48:20.442Z,13.80
2022-11-30T02:49:20.441Z,14.80
2022-11-30T02:50:20.428Z,17.80
2022-11-30T02:51:20.424Z,14.60
2022-11-30T02:52:20.383Z,14.70
2022-11-30T02:53:20.372Z,11.70
2022-11-30T02:54:20.399Z,12.60
2022-11-30T02:55:20.333Z,15.10
2022-11-30T02:56:20.356Z,13.80
2022-11-30T02:57:20.334Z,13.00
2022-11-30T02:58:20.314Z,12.80
2022-11-30T02:59:20.299Z,13.40
2022-11-30T03:00:20.267Z,14.50
2022-11-30T03:01:20.315Z,13.50
2022-11-30T03:02:20.323Z,13.50
2022-11-30T03:03:20.226Z,15.20
2022-11-30T03:04:20.217Z,16.30
2022-11-30T03:05:20.216Z,14.30
2022-11-30T03:06:20.222Z,12.80
2022-11-30T03:07:20.262Z,13.80
2022-11-30T03:08:20.194Z,14.40
2022-11-30T03:09:20.155Z,12.10
2022-11-30T03:10:20.145Z,13.30
2022-11-30T03:11:20.125Z,12.10
2022-11-30T03:12:20.135Z,14.50
2022-11-30T03:13:20.107Z,14.60
2022-11-30T03:14:20.098Z,17.80
2022-11-30T03:15:20.156Z,12.40
2022-11-30T03:16:20.191Z,13.50
2022-11-30T03:17:20.137Z,18.00
2022-11-30T03:18:20.046Z,13.40
2022-11-30T03:19:20.030Z,16.90
2022-11-30T03:20:20.029Z,14.80
2022-11-30T03:21:19.994Z,14.50
2022-11-30T03:22:20.011Z,13.80
2022-11-30T03:23:19.972Z,14.30
2022-11-30T03:24:19.956Z,17.60
2022-11-30T03:25:19.943Z,15.00
2022-11-30T03:26:19.939Z,18.10
2022-11-30T03:27:19.958Z,19.50
2022-11-30T03:28:19.907Z,19.10
2022-11-30T03:29:19.899Z,16.90
2022-11-30T03:30:19.886Z,16.60
2022-11-30T03:31:19.924Z,16.20
2022-11-30T03:32:19.866Z,16.50
2022-11-30T03:33:19.858Z,16.10
2022-11-30T03:34:19.829Z,15.60
2022-11-30T03:35:19.823Z,17.20
2022-11-30T03:36:19.809Z,22.50
2022-11-30T03:37:19.813Z,18.70
2022-11-30T03:38:19.793Z,22.90
2022-11-30T03:39:19.781Z,19.30
2022-11-30T03:40:19.750Z,18.40
2022-11-30T03:41:19.755Z,19.20
2022-11-30T03:42:19.750Z,17.00
2022-11-30T03:43:19.710Z,14.40
2022-11-30T03:44:19.704Z,14.20
2022-11-30T03:45:19.687Z,19.20
2022-11-30T03:46:19.697Z,21.10
2022-11-30T03:47:19.688Z,17.60
2022-11-30T03:48:19.650Z,20.20
2022-11-30T03:49:19.631Z,19.40
2022-11-30T03:50:20.710Z,19.80
2022-11-30T04:03:29.051Z,21.20
2022-11-30T04:04:29.038Z,21.90
2022-11-30T04:05:29.042Z,26.00
2022-11-30T04:06:28.958Z,31.40
2022-11-30T04:07:28.959Z,28.50
2022-11-30T04:08:28.932Z,30.70
2022-11-30T04:09:28.939Z,26.20
2022-11-30T04:10:28.931Z,30.60
2022-11-30T04:11:28.885Z,31.70
2022-11-30T04:12:28.895Z,25.90
2022-11-30T04:13:28.860Z,22.00
2022-11-30T04:14:28.850Z,25.60
2022-11-30T04:15:29.829Z,23.60
2022-11-30T04:16:28.867Z,22.20
2022-11-30T04:17:28.809Z,21.70
2022-11-30T04:18:28.801Z,30.40
2022-11-30T04:19:28.780Z,20.00
2022-11-30T04:20:29.760Z,25.10
2022-11-30T04:21:28.769Z,25.80
2022-11-30T04:22:28.810Z,29.40
2022-11-30T04:23:28.759Z,30.10
2022-11-30T04:24:28.761Z,29.20
2022-11-30T04:26:38.985Z,30.00
2022-11-30T04:27:38.956Z,29.70
2022-11-30T04:28:38.938Z,28.80
2022-11-30T04:29:38.945Z,35.70
2022-11-30T04:30:40.027Z,36.00
2022-11-30T04:31:38.896Z,38.00
2022-11-30T04:32:38.916Z,34.10
2022-11-30T04:33:38.868Z,33.00
2022-11-30T04:34:38.868Z,37.80
2022-11-30T04:35:38.866Z,37.00
2022-11-30T04:36:38.789Z,30.10
2022-11-30T04:37:38.847Z,34.30
2022-11-30T04:38:38.787Z,34.20
2022-11-30T04:39:38.798Z,35.10
2022-11-30T04:40:38.737Z,35.70
2022-11-30T04:41:38.832Z,34.30
2022-11-30T04:42:38.815Z,37.00
2022-11-30T04:43:40.034Z,36.20
2022-11-30T04:44:38.745Z,39.20
2022-11-30T04:45:38.679Z,39.10
2022-11-30T04:46:38.862Z,31.70
2022-11-30T04:47:38.668Z,24.80
2022-11-30T04:48:38.688Z,36.20
2022-11-30T04:49:38.682Z,32.20
2022-11-30T04:50:38.617Z,37.10
2022-11-30T04:51:38.640Z,32.80
2022-11-30T04:52:38.639Z,39.20
2022-11-30T04:53:38.591Z,32.50
2022-11-30T04:54:38.601Z,29.40
2022-11-30T04:55:38.557Z,30.10
2022-11-30T04:56:38.550Z,27.70
2022-11-30T04:57:38.518Z,22.90
2022-11-30T04:58:38.514Z,22.60
2022-11-30T04:59:38.512Z,26.50
2022-11-30T05:00:38.489Z,20.10
2022-11-30T05:01:38.552Z,31.00
2022-11-30T05:02:38.506Z,33.30
2022-11-30T05:03:38.459Z,33.40
2022-11-30T05:04:38.473Z,36.00
2022-11-30T05:05:38.429Z,25.60
2022-11-30T05:06:38.415Z,30.00
2022-11-30T05:07:38.446Z,29.40
2022-11-30T05:08:38.379Z,34.20
2022-11-30T05:09:38.370Z,30.50
2022-11-30T05:10:38.353Z,32.70
2022-11-30T05:11:38.372Z,26.60
2022-11-30T05:12:38.371Z,23.40
2022-11-30T05:13:38.377Z,28.80
2022-11-30T05:14:38.305Z,37.90
2022-11-30T05:15:38.307Z,38.00
2022-11-30T05:16:38.311Z,33.50
2022-11-30T05:17:38.269Z,38.40
2022-11-30T05:18:38.292Z,41.90
2022-11-30T05:19:38.243Z,24.70
2022-11-30T05:20:38.222Z,36.00
2022-11-30T05:21:41.336Z,35.20
2022-11-30T05:22:39.198Z,28.40
2022-11-30T05:23:38.244Z,27.50
2022-11-30T05:24:38.174Z,29.60
2022-11-30T05:25:38.162Z,27.60
2022-11-30T05:26:38.179Z,23.20
2022-11-30T05:27:39.133Z,28.60
2022-11-30T05:28:38.171Z,24.50
2022-11-30T05:29:38.110Z,27.30
2022-11-30T05:30:38.091Z,27.80
2022-11-30T05:31:38.179Z,23.60
2022-11-30T05:32:39.050Z,29.90
2022-11-30T05:33:38.073Z,29.20
2022-11-30T05:34:50.158Z,30.30
2022-11-30T05:35:39.054Z,29.50
2022-11-30T05:36:38.031Z,36.70
2022-11-30T05:37:38.994Z,29.70
2022-11-30T05:38:38.014Z,30.10
2022-11-30T05:39:38.002Z,27.90
2022-11-30T05:40:37.953Z,29.50
2022-11-30T05:41:37.971Z,36.00
2022-11-30T05:42:38.965Z,29.30
2022-11-30T05:43:37.961Z,28.90
2022-11-30T05:44:37.964Z,35.00
2022-11-30T05:45:37.893Z,34.90
2022-11-30T05:46:40.964Z,38.30
2022-11-30T05:47:37.884Z,36.70
2022-11-30T05:48:37.879Z,35.60
2022-11-30T05:49:37.851Z,33.50
2022-11-30T05:50:37.823Z,36.80
2022-11-30T05:51:37.822Z,39.80
2022-11-30T05:52:37.824Z,40.20
2022-11-30T05:53:37.824Z,29.80
2022-11-30T05:54:37.831Z,38.80
2022-11-30T05:55:37.767Z,40.50
2022-11-30T05:56:37.753Z,42.70
2022-11-30T05:57:37.786Z,34.90
2022-11-30T05:58:38.721Z,31.60
2022-11-30T05:59:37.762Z,32.40
2022-11-30T06:00:37.691Z,39.20
2022-11-30T06:01:37.705Z,37.10
2022-11-30T06:02:37.744Z,42.20
2022-11-30T06:03:37.654Z,42.10
2022-11-30T06:04:37.698Z,36.80
2022-11-30T06:05:37.639Z,33.70
2022-11-30T06:06:37.623Z,40.10
2022-11-30T06:07:37.653Z,43.70
2022-11-30T06:08:37.689Z,51.90
2022-11-30T06:09:37.613Z,53.10
2022-11-30T06:10:37.567Z,43.80
2022-11-30T06:11:37.566Z,45.40
2022-11-30T06:12:37.545Z,52.00
2022-11-30T06:13:37.517Z,42.40
2022-11-30T06:14:37.544Z,55.80
2022-11-30T06:15:37.486Z,41.30
2022-11-30T06:16:37.526Z,41.50
2022-11-30T06:17:37.488Z,45.00
2022-11-30T06:18:37.468Z,55.20
2022-11-30T06:19:37.485Z,48.70
2022-11-30T06:20:37.458Z,48.50
2022-11-30T06:21:37.430Z,48.00
2022-11-30T06:22:37.415Z,40.80
2022-11-30T06:23:37.460Z,33.10
2022-11-30T06:24:37.418Z,35.50
2022-11-30T06:25:37.377Z,35.00
2022-11-30T06:26:37.345Z,43.60
2022-11-30T06:27:37.349Z,44.80
2022-11-30T06:28:37.336Z,47.40
2022-11-30T06:29:37.326Z,46.40
2022-11-30T06:30:37.318Z,49.60
2022-11-30T06:31:37.332Z,48.00
2022-11-30T06:32:37.268Z,43.70
2022-11-30T06:33:37.275Z,47.10
2022-11-30T06:34:37.285Z,41.60
2022-11-30T06:35:37.270Z,43.20
2022-11-30T06:36:37.238Z,37.00
2022-11-30T06:37:37.217Z,36.70
2022-11-30T06:38:37.207Z,32.50
2022-11-30T06:40:04.876Z,30.30
2022-11-30T06:40:38.200Z,28.90
2022-11-30T06:41:37.157Z,35.50
2022-11-30T06:42:37.147Z,44.40
2022-11-30T06:43:37.159Z,37.10
2022-11-30T06:44:37.146Z,29.90
2022-11-30T06:45:37.167Z,36.00
2022-11-30T06:46:37.109Z,43.60
2022-11-30T06:47:37.081Z,33.80
2022-11-30T06:48:37.068Z,28.10
2022-11-30T06:49:37.059Z,24.60
2022-11-30T06:50:37.087Z,33.50
2022-11-30T06:51:37.039Z,38.90
2022-11-30T06:52:36.997Z,31.60
2022-11-30T06:53:37.008Z,30.20
2022-11-30T06:54:36.977Z,38.30
2022-11-30T06:55:36.999Z,37.90
2022-11-30T06:56:36.959Z,37.50
2022-11-30T06:57:36.930Z,36.50
2022-11-30T06:58:36.940Z,31.90
2022-11-30T06:59:36.919Z,35.00
2022-11-30T07:00:36.958Z,35.70
2022-11-30T07:01:36.894Z,39.10
2022-11-30T07:02:36.860Z,29.10
2022-11-30T07:03:36.880Z,37.40
2022-11-30T07:04:36.877Z,39.50
2022-11-30T07:05:36.831Z,38.30
2022-11-30T07:06:36.818Z,29.10
2022-11-30T07:07:36.859Z,38.00
2022-11-30T07:08:36.790Z,30.20
2022-11-30T07:09:36.787Z,25.60
2022-11-30T07:10:36.793Z,32.90
2022-11-30T07:11:36.751Z,28.70
2022-11-30T07:12:36.763Z,27.10
2022-11-30T07:13:36.740Z,36.30
2022-11-30T07:14:37.739Z,39.20
2022-11-30T07:15:36.732Z,25.80
2022-11-30T07:16:36.729Z,28.00
2022-11-30T07:17:36.692Z,31.20
2022-11-30T07:18:36.652Z,27.60
2022-11-30T07:19:36.674Z,30.50
2022-11-30T07:20:36.657Z,28.00
2022-11-30T07:21:36.622Z,31.80
2022-11-30T07:22:36.621Z,37.50
2022-11-30T07:23:36.612Z,31.30
2022-11-30T07:24:36.591Z,31.40
2022-11-30T07:25:36.581Z,32.80
2022-11-30T07:26:36.600Z,31.30
2022-11-30T07:27:36.562Z,29.80
2022-11-30T07:28:36.568Z,25.10
2022-11-30T07:29:36.640Z,25.60
2022-11-30T07:30:36.534Z,31.60
2022-11-30T07:31:36.581Z,28.30
2022-11-30T07:32:36.491Z,29.00
2022-11-30T07:33:36.494Z,31.10
2022-11-30T07:34:36.444Z,24.90
2022-11-30T07:35:36.454Z,28.20
2022-11-30T07:36:36.488Z,30.10
2022-11-30T07:37:36.423Z,27.10
2022-11-30T07:38:36.403Z,29.30
2022-11-30T07:39:36.417Z,30.10
2022-11-30T07:40:36.413Z,33.60
2022-11-30T07:41:36.393Z,27.70
2022-11-30T07:42:36.353Z,35.90
2022-11-30T07:43:36.351Z,28.90
2022-11-30T07:44:36.333Z,36.50
2022-11-30T07:45:36.392Z,30.50
2022-11-30T07:46:36.306Z,33.00
2022-11-30T07:47:36.306Z,30.30
2022-11-30T07:48:36.273Z,30.80
2022-11-30T07:49:36.263Z,29.40
2022-11-30T07:50:36.254Z,25.20
2022-11-30T07:51:36.264Z,26.50
2022-11-30T07:52:36.221Z,27.20
2022-11-30T07:53:36.223Z,26.60
2022-11-30T07:54:36.225Z,30.00
2022-11-30T07:55:36.217Z,28.80
2022-11-30T07:56:37.178Z,23.80
2022-11-30T07:57:36.156Z,29.90
2022-11-30T07:58:36.157Z,23.50
2022-11-30T07:59:36.172Z,32.50
2022-11-30T08:00:36.118Z,30.60
2022-11-30T08:01:36.184Z,32.30
2022-11-30T08:02:36.084Z,33.20
2022-11-30T08:03:37.254Z,31.50
2022-11-30T08:04:36.100Z,31.00
2022-11-30T08:05:36.064Z,38.80
2022-11-30T08:06:36.086Z,36.40
2022-11-30T08:07:36.070Z,37.20
2022-11-30T08:08:36.044Z,30.30
2022-11-30T08:09:36.007Z,25.50
2022-11-30T08:10:35.993Z,38.00
2022-11-30T08:11:36.042Z,31.20
2022-11-30T08:12:36.001Z,33.40
2022-11-30T08:13:35.968Z,26.30
2022-11-30T08:14:56.640Z,29.40
2022-11-30T08:15:37.392Z,32.30
2022-11-30T08:16:35.999Z,35.90
2022-11-30T08:17:35.909Z,26.10
2022-11-30T08:18:35.874Z,30.10
2022-11-30T08:19:35.899Z,27.40
2022-11-30T08:20:35.859Z,25.80
2022-11-30T08:21:35.861Z,26.50
2022-11-30T08:22:35.828Z,23.80
2022-11-30T08:23:35.849Z,29.60
2022-11-30T08:24:35.858Z,26.10
2022-11-30T08:25:35.777Z,27.30
2022-11-30T08:26:36.791Z,27.60
2022-11-30T08:27:36.766Z,30.10
2022-11-30T08:28:35.742Z,28.50
2022-11-30T08:29:35.744Z,30.00
2022-11-30T08:30:35.930Z,30.30
2022-11-30T08:31:35.775Z,31.00
2022-11-30T08:32:35.701Z,30.90
2022-11-30T08:33:35.679Z,28.30
2022-11-30T08:34:35.669Z,25.60
2022-11-30T08:35:35.657Z,29.80
2022-11-30T08:36:35.650Z,24.60
2022-11-30T08:37:35.663Z,24.50
2022-11-30T08:38:35.640Z,27.90
2022-11-30T08:39:35.601Z,25.80
2022-11-30T08:40:35.591Z,25.70
2022-11-30T08:41:35.583Z,31.90
2022-11-30T08:42:35.571Z,28.70
2022-11-30T08:43:35.598Z,23.10
2022-11-30T08:44:35.550Z,29.90
2022-11-30T08:45:35.508Z,26.80
2022-11-30T08:46:50.922Z,30.30
2022-11-30T08:47:36.547Z,25.70
2022-11-30T08:48:35.521Z,26.10
2022-11-30T08:49:35.472Z,29.60
2022-11-30T08:50:35.460Z,27.70
2022-11-30T08:52:00.879Z,27.30
2022-11-30T08:52:36.441Z,26.80
2022-11-30T08:53:36.421Z,28.00
2022-11-30T08:54:35.401Z,28.80
2022-11-30T08:55:35.402Z,25.90
2022-11-30T08:56:35.412Z,29.30
2022-11-30T08:57:35.390Z,32.20
2022-11-30T08:58:35.392Z,26.40
2022-11-30T08:59:35.332Z,32.00
2022-11-30T09:00:35.343Z,28.40
2022-11-30T09:01:35.352Z,25.80
2022-11-30T09:02:35.382Z,29.10
2022-11-30T09:03:35.292Z,26.60
2022-11-30T09:04:35.321Z,27.00
2022-11-30T09:05:35.299Z,29.40
2022-11-30T09:06:35.257Z,26.30
2022-11-30T09:07:35.392Z,30.20
2022-11-30T09:08:39.581Z,30.00
2022-11-30T09:09:36.202Z,26.60
2022-11-30T09:10:35.210Z,27.00
2022-11-30T09:11:35.172Z,26.80
2022-11-30T09:12:35.192Z,26.70
2022-11-30T09:13:35.186Z,31.00
2022-11-30T09:14:35.161Z,35.20
2022-11-30T09:15:35.180Z,27.90
2022-11-30T09:16:35.114Z,26.30
2022-11-30T09:17:35.112Z,27.00
2022-11-30T09:18:35.103Z,28.70
2022-11-30T09:19:35.084Z,28.20
2022-11-30T09:20:35.065Z,29.00
2022-11-30T09:21:35.036Z,27.10
2022-11-30T09:22:35.140Z,27.00
2022-11-30T09:23:35.037Z,25.50
2022-11-30T09:24:36.027Z,25.20
2022-11-30T09:25:34.993Z,25.90
2022-11-30T09:26:34.990Z,28.90
2022-11-30T09:27:35.036Z,25.40
2022-11-30T09:28:34.995Z,25.80
2022-11-30T09:29:35.958Z,25.80
2022-11-30T09:30:34.961Z,25.90
2022-11-30T09:31:34.932Z,27.30
2022-11-30T09:32:34.947Z,27.40
2022-11-30T09:33:34.914Z,25.70
2022-11-30T09:34:35.900Z,23.70
2022-11-30T09:35:34.864Z,24.80
2022-11-30T09:36:34.868Z,23.80
2022-11-30T09:37:34.877Z,28.10
2022-11-30T09:38:34.888Z,24.70
2022-11-30T09:39:34.878Z,28.40
2022-11-30T09:40:35.872Z,26.10
2022-11-30T09:41:34.808Z,27.20
2022-11-30T09:42:34.811Z,27.10
2022-11-30T09:43:34.779Z,24.90
2022-11-30T09:44:34.755Z,24.70
2022-11-30T09:45:34.808Z,22.60
2022-11-30T09:46:34.785Z,24.10
2022-11-30T09:47:34.732Z,25.10
2022-11-30T10:04:08.144Z,20.80
2022-11-30T10:05:08.096Z,20.10
2022-11-30T10:06:08.113Z,19.00
2022-11-30T10:07:08.067Z,19.20
2022-11-30T10:08:08.131Z,20.40
2022-11-30T10:09:08.079Z,21.00
2022-11-30T10:10:31.069Z,22.00
2022-11-30T10:11:09.595Z,19.80
2022-11-30T10:12:08.025Z,21.00
2022-11-30T10:13:08.038Z,23.30
2022-11-30T10:14:07.985Z,24.90
2022-11-30T10:15:07.973Z,24.70
2022-11-30T10:16:07.998Z,23.20
2022-11-30T10:17:15.452Z,21.80
2022-11-30T10:18:07.935Z,21.00
2022-11-30T10:19:07.916Z,22.20
2022-11-30T10:20:07.900Z,24.60
2022-11-30T10:21:07.885Z,22.70
2022-11-30T10:22:07.879Z,21.40
2022-11-30T10:23:07.865Z,22.20
2022-11-30T10:24:07.865Z,21.80
2022-11-30T10:25:11.910Z,24.90
2022-11-30T10:26:07.825Z,22.80
2022-11-30T10:27:07.808Z,23.80
2022-11-30T10:28:24.315Z,21.60
2022-11-30T10:29:08.814Z,23.30
2022-11-30T10:30:07.765Z,23.60
2022-11-30T10:31:07.784Z,22.50
2022-11-30T10:32:07.746Z,21.90
2022-11-30T10:33:07.729Z,22.30
2022-11-30T10:34:07.736Z,21.10
2022-11-30T10:35:07.718Z,20.60
2022-11-30T10:36:07.694Z,21.40
2022-11-30T10:37:07.692Z,21.20
2022-11-30T10:38:07.668Z,20.80
2022-11-30T10:39:10.728Z,21.50
2022-11-30T10:40:08.646Z,20.30
2022-11-30T10:41:07.626Z,20.50
2022-11-30T10:42:07.616Z,21.30
2022-11-30T10:43:07.617Z,21.00
2022-11-30T10:44:07.590Z,21.50
2022-11-30T10:45:07.575Z,20.30
2022-11-30T10:46:11.269Z,20.20
2022-11-30T10:47:08.548Z,22.00
2022-11-30T10:48:07.541Z,20.50
2022-11-30T10:49:07.547Z,22.10
2022-11-30T10:50:07.525Z,22.40
2022-11-30T10:51:07.516Z,20.70
2022-11-30T10:52:07.500Z,20.00
2022-11-30T10:53:07.479Z,21.60
2022-11-30T10:54:07.478Z,22.00
2022-11-30T10:55:07.438Z,22.00
2022-11-30T10:56:07.428Z,21.50
2022-11-30T10:57:07.435Z,25.20
2022-11-30T10:58:07.410Z,24.50
2022-11-30T10:59:07.392Z,20.10
2022-11-30T11:00:07.390Z,24.30
2022-11-30T11:01:07.641Z,21.70
2022-11-30T11:02:07.377Z,21.30
2022-11-30T11:03:07.388Z,21.70
2022-11-30T11:04:07.364Z,20.10
2022-11-30T11:05:07.319Z,20.80
2022-11-30T11:06:07.312Z,22.10
2022-11-30T11:07:07.372Z,23.50
2022-11-30T11:08:07.712Z,23.90
2022-11-30T11:09:07.280Z,22.10
2022-11-30T11:10:07.259Z,21.90
2022-11-30T11:11:07.251Z,20.70
2022-11-30T11:12:07.235Z,21.10
2022-11-30T11:13:07.217Z,21.90
2022-11-30T11:14:07.210Z,23.90
2022-11-30T11:15:07.191Z,23.60
2022-11-30T11:16:07.245Z,21.20
2022-11-30T11:17:07.166Z,21.70
2022-11-30T11:18:07.141Z,22.30
2022-11-30T11:19:07.132Z,23.50
2022-11-30T11:20:07.131Z,25.60
2022-11-30T11:21:07.347Z,23.10
2022-11-30T11:22:07.090Z,23.70
2022-11-30T11:23:07.081Z,23.50
2022-11-30T11:24:07.060Z,25.40
2022-11-30T11:25:07.061Z,26.00
2022-11-30T11:26:07.039Z,22.70
2022-11-30T11:27:07.032Z,23.10
2022-11-30T11:28:07.003Z,26.00
2022-11-30T11:29:07.029Z,24.70
2022-11-30T11:30:07.001Z,22.90
2022-11-30T11:31:07.008Z,22.70
2022-11-30T11:32:06.965Z,24.00
2022-11-30T11:33:06.942Z,25.80
2022-11-30T11:34:06.941Z,24.20
2022-11-30T11:35:07.021Z,24.20
2022-11-30T11:36:06.912Z,22.90
2022-11-30T11:37:06.902Z,23.50
2022-11-30T11:38:06.874Z,21.50
2022-11-30T11:39:06.873Z,25.00
2022-11-30T11:40:06.872Z,23.00
2022-11-30T11:41:06.858Z,26.20
2022-11-30T11:42:06.843Z,25.80
2022-11-30T11:43:06.824Z,27.20
2022-11-30T11:44:06.814Z,27.50
2022-11-30T11:45:06.812Z,27.00
2022-11-30T11:46:06.827Z,21.40
2022-11-30T11:47:06.775Z,22.60
2022-11-30T11:48:06.754Z,21.80
2022-11-30T11:49:06.744Z,19.70
2022-11-30T11:50:06.746Z,22.80
2022-11-30T11:51:08.070Z,21.70
2022-11-30T11:52:06.711Z,20.40
2022-11-30T11:53:06.713Z,21.00
2022-11-30T11:54:06.753Z,22.80
2022-11-30T11:55:06.675Z,21.70
2022-11-30T11:56:06.654Z,23.10
2022-11-30T11:57:06.635Z,19.90
2022-11-30T11:58:06.625Z,21.00
2022-11-30T11:59:06.606Z,21.10
2022-11-30T12:00:12.536Z,22.10
2022-11-30T12:01:38.006Z,25.90
2022-11-30T12:02:07.575Z,26.30
2022-11-30T12:03:06.628Z,26.00
2022-11-30T12:04:06.575Z,23.10
2022-11-30T12:05:06.546Z,22.20
2022-11-30T12:06:06.518Z,20.10
2022-11-30T12:07:06.507Z,24.90
2022-11-30T12:08:06.552Z,22.70
2022-11-30T12:09:06.488Z,22.10
2022-11-30T12:10:21.910Z,20.80
2022-11-30T12:11:07.454Z,22.40
2022-11-30T12:12:06.446Z,18.10
2022-11-30T12:13:06.436Z,19.90
2022-11-30T12:14:06.416Z,20.30
2022-11-30T12:15:07.747Z,21.30
2022-11-30T12:16:06.418Z,22.60
2022-11-30T12:17:06.386Z,22.10
2022-11-30T12:18:10.670Z,20.20
2022-11-30T12:19:07.352Z,21.10
2022-11-30T12:20:06.340Z,21.50
2022-11-30T12:21:06.329Z,21.60
2022-11-30T12:22:06.342Z,21.10
2022-11-30T12:23:06.304Z,22.30
2022-11-30T12:24:06.290Z,20.00
2022-11-30T12:25:06.483Z,19.50
2022-11-30T12:26:06.257Z,19.20
2022-11-30T12:27:06.255Z,21.80
2022-11-30T12:28:06.230Z,21.90
2022-11-30T12:29:06.228Z,21.00
2022-11-30T12:30:06.254Z,20.20
2022-11-30T12:31:06.225Z,21.20
2022-11-30T12:32:06.188Z,19.40
2022-11-30T12:33:06.176Z,20.10
2022-11-30T12:34:06.159Z,20.10
2022-11-30T12:35:06.148Z,20.30
2022-11-30T12:36:06.153Z,20.90
2022-11-30T12:37:06.132Z,18.80
2022-11-30T12:38:06.099Z,20.80
2022-11-30T12:39:06.099Z,20.20
2022-11-30T12:40:06.091Z,22.10
2022-11-30T12:41:06.073Z,19.80
2022-11-30T12:42:06.077Z,19.90
2022-11-30T12:43:06.052Z,17.90
2022-11-30T12:44:06.039Z,21.80
2022-11-30T12:45:06.009Z,21.90
2022-11-30T12:46:06.066Z,22.80
2022-11-30T12:47:06.000Z,21.80
2022-11-30T12:48:05.960Z,21.20
2022-11-30T12:49:05.985Z,21.00
2022-11-30T12:50:05.961Z,22.10
2022-11-30T12:51:05.952Z,23.50
2022-11-30T12:52:05.940Z,20.70
2022-11-30T12:53:05.913Z,22.80
2022-11-30T12:54:05.900Z,21.90
2022-11-30T12:55:05.895Z,25.40
2022-11-30T12:56:05.880Z,22.60
2022-11-30T12:57:05.863Z,23.80
2022-11-30T12:58:05.850Z,22.30
2022-11-30T12:59:05.829Z,24.20
2022-11-30T13:00:05.822Z,23.20
2022-11-30T13:01:06.898Z,22.60
2022-11-30T13:02:05.853Z,21.00
2022-11-30T13:03:05.772Z,22.60
2022-11-30T13:04:05.774Z,20.60
2022-11-30T13:05:05.766Z,19.80
2022-11-30T13:06:06.117Z,19.20
2022-11-30T13:07:05.732Z,19.70
2022-11-30T13:08:05.771Z,22.50
2022-11-30T13:09:05.702Z,23.60
2022-11-30T13:10:05.683Z,18.70
2022-11-30T13:11:05.694Z,20.80
2022-11-30T13:12:05.664Z,21.60
2022-11-30T13:13:05.633Z,22.20
2022-11-30T13:14:06.589Z,20.20
2022-11-30T13:15:05.623Z,21.60
2022-11-30T13:16:05.693Z,18.30
2022-11-30T13:17:05.597Z,19.90
2022-11-30T13:18:05.616Z,19.00
2022-11-30T13:19:05.563Z,19.60
2022-11-30T13:20:05.840Z,20.40
2022-11-30T13:21:07.028Z,18.70
2022-11-30T13:22:05.533Z,18.90